sensor_id;sensor_type;location;lat;lon;timestamp;P1;durP1;ratioP1;P2;durP2;ratioP2
826;SDS011;395;48.132;11.608;2023-08-01T00:00:48;4.00;;;3.13;;
826;SDS011;395;48.132;11.608;2023-08-01T00:03:14;12.83;;;3.33;;
826;SDS011;395;48.132;11.608;2023-08-01T00:05:40;3.40;;;2.70;;
826;SDS011;395;48.132;11.608;2023-08-01T00:08:12;3.80;;;2.40;;
826;SDS011;395;48.132;11.608;2023-08-01T00:10:39;3.10;;;2.80;;
826;SDS011;395;48.132;11.608;2023-08-01T00:13:06;3.17;;;2.40;;
826;SDS011;395;48.132;11.608;2023-08-01T00:15:32;2.10;;;1.60;;
826;SDS011;395;48.132;11.608;2023-08-01T00:17:58;4.10;;;2.73;;
826;SDS011;395;48.132;11.608;2023-08-01T00:20:23;3.37;;;2.90;;
826;SDS011;395;48.132;11.608;2023-08-01T00:22:49;3.30;;;2.67;;
826;SDS011;395;48.132;11.608;2023-08-01T00:25:15;4.23;;;2.90;;
826;SDS011;395;48.132;11.608;2023-08-01T00:27:41;4.17;;;2.90;;
826;SDS011;395;48.132;11.608;2023-08-01T00:30:07;4.40;;;2.43;;
826;SDS011;395;48.132;11.608;2023-08-01T00:32:34;4.03;;;2.73;;
826;SDS011;395;48.132;11.608;2023-08-01T00:35:00;2.90;;;2.60;;
826;SDS011;395;48.132;11.608;2023-08-01T00:37:26;3.40;;;2.50;;
826;SDS011;395;48.132;11.608;2023-08-01T00:39:51;2.70;;;2.27;;
826;SDS011;395;48.132;11.608;2023-08-01T00:42:17;2.83;;;2.63;;
826;SDS011;395;48.132;11.608;2023-08-01T00:44:43;3.10;;;2.50;;
826;SDS011;395;48.132;11.608;2023-08-01T00:47:08;2.40;;;2.20;;
826;SDS011;395;48.132;11.608;2023-08-01T00:49:35;4.53;;;2.93;;
826;SDS011;395;48.132;11.608;2023-08-01T00:52:01;4.13;;;2.80;;
826;SDS011;395;48.132;11.608;2023-08-01T00:54:27;4.13;;;2.97;;
826;SDS011;395;48.132;11.608;2023-08-01T00:56:53;3.00;;;2.70;;
826;SDS011;395;48.132;11.608;2023-08-01T00:59:19;3.27;;;2.60;;
826;SDS011;395;48.132;11.608;2023-08-01T01:01:45;4.03;;;3.07;;
826;SDS011;395;48.132;11.608;2023-08-01T01:04:10;3.23;;;2.93;;
826;SDS011;395;48.132;11.608;2023-08-01T01:09:31;2.67;;;2.43;;
826;SDS011;395;48.132;11.608;2023-08-01T01:11:58;4.80;;;2.80;;
826;SDS011;395;48.132;11.608;2023-08-01T01:14:25;6.90;;;2.60;;
826;SDS011;395;48.132;11.608;2023-08-01T01:16:51;3.30;;;2.97;;
826;SDS011;395;48.132;11.608;2023-08-01T01:19:17;3.07;;;2.77;;
826;SDS011;395;48.132;11.608;2023-08-01T01:21:42;4.03;;;3.00;;
826;SDS011;395;48.132;11.608;2023-08-01T01:24:09;5.43;;;2.97;;
826;SDS011;395;48.132;11.608;2023-08-01T01:26:36;3.90;;;3.10;;
826;SDS011;395;48.132;11.608;2023-08-01T01:29:02;2.93;;;2.70;;
826;SDS011;395;48.132;11.608;2023-08-01T01:31:30;5.43;;;3.40;;
826;SDS011;395;48.132;11.608;2023-08-01T01:33:56;3.40;;;3.10;;
826;SDS011;395;48.132;11.608;2023-08-01T01:36:22;3.23;;;2.90;;
826;SDS011;395;48.132;11.608;2023-08-01T01:38:48;4.30;;;2.63;;
826;SDS011;395;48.132;11.608;2023-08-01T01:41:14;4.30;;;3.00;;
826;SDS011;395;48.132;11.608;2023-08-01T01:43:39;3.40;;;3.10;;
826;SDS011;395;48.132;11.608;2023-08-01T01:46:06;3.93;;;3.43;;
826;SDS011;395;48.132;11.608;2023-08-01T01:48:31;2.90;;;2.50;;
826;SDS011;395;48.132;11.608;2023-08-01T01:50:57;3.30;;;2.77;;
826;SDS011;395;48.132;11.608;2023-08-01T01:53:23;4.60;;;3.00;;
826;SDS011;395;48.132;11.608;2023-08-01T01:55:48;3.93;;;2.80;;
826;SDS011;395;48.132;11.608;2023-08-01T01:58:14;2.60;;;2.40;;
826;SDS011;395;48.132;11.608;2023-08-01T02:00:40;3.53;;;2.97;;
826;SDS011;395;48.132;11.608;2023-08-01T02:03:05;3.23;;;2.93;;
826;SDS011;395;48.132;11.608;2023-08-01T02:05:35;3.80;;;2.70;;
826;SDS011;395;48.132;11.608;2023-08-01T02:08:06;4.77;;;2.90;;
826;SDS011;395;48.132;11.608;2023-08-01T02:10:33;3.17;;;2.73;;
826;SDS011;395;48.132;11.608;2023-08-01T02:12:58;4.47;;;3.40;;
826;SDS011;395;48.132;11.608;2023-08-01T02:15:24;3.33;;;2.93;;
826;SDS011;395;48.132;11.608;2023-08-01T02:17:50;3.50;;;2.80;;
826;SDS011;395;48.132;11.608;2023-08-01T02:20:15;3.03;;;2.73;;
826;SDS011;395;48.132;11.608;2023-08-01T02:22:41;4.93;;;2.97;;
826;SDS011;395;48.132;11.608;2023-08-01T02:25:07;3.93;;;2.90;;
826;SDS011;395;48.132;11.608;2023-08-01T02:27:33;3.60;;;2.90;;
826;SDS011;395;48.132;11.608;2023-08-01T02:29:58;3.63;;;2.70;;
826;SDS011;395;48.132;11.608;2023-08-01T02:32:24;2.77;;;2.57;;
826;SDS011;395;48.132;11.608;2023-08-01T02:34:50;3.70;;;2.73;;
826;SDS011;395;48.132;11.608;2023-08-01T02:37:16;3.10;;;2.80;;
826;SDS011;395;48.132;11.608;2023-08-01T02:39:41;3.87;;;2.60;;
826;SDS011;395;48.132;11.608;2023-08-01T02:42:07;3.80;;;3.20;;
826;SDS011;395;48.132;11.608;2023-08-01T02:44:33;4.00;;;3.20;;
826;SDS011;395;48.132;11.608;2023-08-01T02:46:59;3.30;;;3.00;;
826;SDS011;395;48.132;11.608;2023-08-01T02:49:25;3.50;;;2.73;;
826;SDS011;395;48.132;11.608;2023-08-01T02:51:50;5.20;;;2.93;;
826;SDS011;395;48.132;11.608;2023-08-01T02:54:16;3.70;;;3.10;;
826;SDS011;395;48.132;11.608;2023-08-01T02:56:42;3.07;;;2.77;;
826;SDS011;395;48.132;11.608;2023-08-01T02:59:07;3.77;;;3.17;;
826;SDS011;395;48.132;11.608;2023-08-01T03:01:36;3.83;;;2.77;;
826;SDS011;395;48.132;11.608;2023-08-01T03:04:03;3.30;;;2.80;;
826;SDS011;395;48.132;11.608;2023-08-01T03:06:29;3.10;;;2.80;;
826;SDS011;395;48.132;11.608;2023-08-01T03:08:58;3.20;;;2.90;;
826;SDS011;395;48.132;11.608;2023-08-01T03:11:24;3.70;;;3.30;;
826;SDS011;395;48.132;11.608;2023-08-01T03:13:51;3.27;;;2.47;;
826;SDS011;395;48.132;11.608;2023-08-01T03:16:17;3.90;;;3.10;;
826;SDS011;395;48.132;11.608;2023-08-01T03:18:42;3.50;;;3.20;;
826;SDS011;395;48.132;11.608;2023-08-01T03:21:08;3.87;;;3.00;;
826;SDS011;395;48.132;11.608;2023-08-01T03:23:34;7.23;;;2.90;;
826;SDS011;395;48.132;11.608;2023-08-01T03:26:00;3.53;;;3.23;;
826;SDS011;395;48.132;11.608;2023-08-01T03:28:26;3.33;;;2.97;;
826;SDS011;395;48.132;11.608;2023-08-01T03:30:51;2.63;;;2.43;;
826;SDS011;395;48.132;11.608;2023-08-01T03:33:19;3.53;;;3.00;;
826;SDS011;395;48.132;11.608;2023-08-01T03:35:45;3.00;;;2.60;;
826;SDS011;395;48.132;11.608;2023-08-01T03:38:11;3.70;;;3.10;;
826;SDS011;395;48.132;11.608;2023-08-01T03:40:37;5.00;;;3.03;;
826;SDS011;395;48.132;11.608;2023-08-01T03:43:02;3.03;;;2.73;;
826;SDS011;395;48.132;11.608;2023-08-01T03:45:28;3.30;;;2.83;;
826;SDS011;395;48.132;11.608;2023-08-01T03:47:54;6.77;;;3.37;;
826;SDS011;395;48.132;11.608;2023-08-01T03:50:20;3.50;;;3.10;;
826;SDS011;395;48.132;11.608;2023-08-01T03:52:46;4.37;;;3.07;;
826;SDS011;395;48.132;11.608;2023-08-01T03:55:11;3.20;;;2.90;;
826;SDS011;395;48.132;11.608;2023-08-01T03:57:37;4.50;;;2.90;;
826;SDS011;395;48.132;11.608;2023-08-01T04:00:04;3.70;;;3.37;;
826;SDS011;395;48.132;11.608;2023-08-01T04:02:39;4.10;;;3.03;;
826;SDS011;395;48.132;11.608;2023-08-01T04:05:08;3.37;;;3.07;;
826;SDS011;395;48.132;11.608;2023-08-01T04:07:34;3.30;;;3.00;;
826;SDS011;395;48.132;11.608;2023-08-01T04:10:03;3.60;;;3.17;;
826;SDS011;395;48.132;11.608;2023-08-01T04:12:30;3.60;;;3.23;;
826;SDS011;395;48.132;11.608;2023-08-01T04:14:57;3.50;;;3.20;;
826;SDS011;395;48.132;11.608;2023-08-01T04:17:23;5.43;;;3.60;;
826;SDS011;395;48.132;11.608;2023-08-01T04:19:48;7.37;;;3.93;;
826;SDS011;395;48.132;11.608;2023-08-01T04:22:14;4.63;;;4.00;;
826;SDS011;395;48.132;11.608;2023-08-01T04:24:40;3.47;;;3.17;;
826;SDS011;395;48.132;11.608;2023-08-01T04:27:05;4.07;;;3.13;;
826;SDS011;395;48.132;11.608;2023-08-01T04:29:31;4.07;;;3.67;;
826;SDS011;395;48.132;11.608;2023-08-01T04:31:57;5.77;;;4.63;;
826;SDS011;395;48.132;11.608;2023-08-01T04:34:22;3.90;;;3.47;;
826;SDS011;395;48.132;11.608;2023-08-01T04:36:48;5.27;;;4.13;;
826;SDS011;395;48.132;11.608;2023-08-01T04:39:14;4.77;;;3.33;;
826;SDS011;395;48.132;11.608;2023-08-01T04:41:39;4.50;;;3.80;;
826;SDS011;395;48.132;11.608;2023-08-01T04:44:05;4.70;;;3.80;;
826;SDS011;395;48.132;11.608;2023-08-01T04:46:31;5.13;;;4.00;;
826;SDS011;395;48.132;11.608;2023-08-01T04:48:57;4.20;;;3.73;;
826;SDS011;395;48.132;11.608;2023-08-01T04:51:23;3.70;;;3.33;;
826;SDS011;395;48.132;11.608;2023-08-01T04:53:49;4.30;;;3.83;;
826;SDS011;395;48.132;11.608;2023-08-01T04:56:15;4.20;;;3.50;;
826;SDS011;395;48.132;11.608;2023-08-01T04:58:41;4.40;;;3.60;;
826;SDS011;395;48.132;11.608;2023-08-01T05:01:06;4.83;;;4.10;;
826;SDS011;395;48.132;11.608;2023-08-01T05:03:32;5.20;;;3.70;;
826;SDS011;395;48.132;11.608;2023-08-01T05:05:58;5.87;;;4.10;;
826;SDS011;395;48.132;11.608;2023-08-01T05:08:23;4.87;;;3.93;;
826;SDS011;395;48.132;11.608;2023-08-01T05:10:49;5.37;;;3.67;;
826;SDS011;395;48.132;11.608;2023-08-01T05:13:15;7.10;;;4.17;;
826;SDS011;395;48.132;11.608;2023-08-01T05:15:43;5.37;;;4.40;;
826;SDS011;395;48.132;11.608;2023-08-01T05:18:12;4.90;;;4.40;;
826;SDS011;395;48.132;11.608;2023-08-01T05:20:38;4.33;;;3.93;;
826;SDS011;395;48.132;11.608;2023-08-01T05:23:04;4.53;;;3.93;;
826;SDS011;395;48.132;11.608;2023-08-01T05:25:30;4.97;;;4.13;;
826;SDS011;395;48.132;11.608;2023-08-01T05:27:55;5.87;;;4.53;;
826;SDS011;395;48.132;11.608;2023-08-01T05:30:21;4.43;;;4.03;;
826;SDS011;395;48.132;11.608;2023-08-01T05:32:46;5.20;;;4.57;;
826;SDS011;395;48.132;11.608;2023-08-01T05:35:12;6.07;;;3.97;;
826;SDS011;395;48.132;11.608;2023-08-01T05:37:38;5.30;;;3.70;;
826;SDS011;395;48.132;11.608;2023-08-01T05:40:04;6.60;;;4.23;;
826;SDS011;395;48.132;11.608;2023-08-01T05:42:30;4.77;;;3.90;;
826;SDS011;395;48.132;11.608;2023-08-01T05:44:55;5.23;;;4.17;;
826;SDS011;395;48.132;11.608;2023-08-01T05:47:21;6.80;;;3.80;;
826;SDS011;395;48.132;11.608;2023-08-01T05:49:50;4.27;;;3.87;;
826;SDS011;395;48.132;11.608;2023-08-01T05:52:16;4.40;;;3.63;;
826;SDS011;395;48.132;11.608;2023-08-01T05:54:41;4.63;;;3.97;;
826;SDS011;395;48.132;11.608;2023-08-01T05:57:07;4.90;;;4.10;;
826;SDS011;395;48.132;11.608;2023-08-01T05:59:33;4.00;;;3.27;;
826;SDS011;395;48.132;11.608;2023-08-01T06:01:59;5.20;;;4.60;;
826;SDS011;395;48.132;11.608;2023-08-01T06:04:25;4.57;;;3.83;;
826;SDS011;395;48.132;11.608;2023-08-01T06:06:50;6.80;;;4.47;;
826;SDS011;395;48.132;11.608;2023-08-01T06:09:16;4.30;;;3.90;;
826;SDS011;395;48.132;11.608;2023-08-01T06:11:42;4.07;;;3.67;;
826;SDS011;395;48.132;11.608;2023-08-01T06:14:08;4.60;;;4.00;;
826;SDS011;395;48.132;11.608;2023-08-01T06:16:34;5.50;;;4.20;;
826;SDS011;395;48.132;11.608;2023-08-01T06:19:00;8.43;;;4.10;;
826;SDS011;395;48.132;11.608;2023-08-01T06:21:26;4.57;;;4.03;;
826;SDS011;395;48.132;11.608;2023-08-01T06:23:52;5.47;;;3.53;;
826;SDS011;395;48.132;11.608;2023-08-01T06:26:17;4.90;;;3.40;;
826;SDS011;395;48.132;11.608;2023-08-01T06:28:43;6.10;;;4.23;;
826;SDS011;395;48.132;11.608;2023-08-01T06:31:09;4.67;;;3.40;;
826;SDS011;395;48.132;11.608;2023-08-01T06:33:35;4.50;;;3.60;;
826;SDS011;395;48.132;11.608;2023-08-01T06:36:00;4.50;;;3.67;;
826;SDS011;395;48.132;11.608;2023-08-01T06:38:26;7.87;;;4.33;;
826;SDS011;395;48.132;11.608;2023-08-01T06:40:51;5.67;;;3.90;;
826;SDS011;395;48.132;11.608;2023-08-01T06:43:17;4.60;;;3.50;;
826;SDS011;395;48.132;11.608;2023-08-01T06:45:43;7.93;;;4.50;;
826;SDS011;395;48.132;11.608;2023-08-01T06:48:08;4.30;;;3.40;;
826;SDS011;395;48.132;11.608;2023-08-01T06:50:34;3.80;;;3.30;;
826;SDS011;395;48.132;11.608;2023-08-01T06:53:00;4.80;;;3.73;;
826;SDS011;395;48.132;11.608;2023-08-01T06:55:26;4.00;;;3.00;;
826;SDS011;395;48.132;11.608;2023-08-01T06:57:52;5.30;;;3.80;;
826;SDS011;395;48.132;11.608;2023-08-01T07:00:18;5.57;;;3.53;;
826;SDS011;395;48.132;11.608;2023-08-01T07:02:43;4.07;;;3.37;;
826;SDS011;395;48.132;11.608;2023-08-01T07:05:09;5.13;;;3.40;;
826;SDS011;395;48.132;11.608;2023-08-01T07:07:35;6.33;;;3.37;;
826;SDS011;395;48.132;11.608;2023-08-01T07:10:00;4.27;;;3.30;;
826;SDS011;395;48.132;11.608;2023-08-01T07:12:26;4.07;;;3.00;;
826;SDS011;395;48.132;11.608;2023-08-01T07:14:52;3.20;;;2.90;;
826;SDS011;395;48.132;11.608;2023-08-01T07:17:17;3.67;;;3.10;;
826;SDS011;395;48.132;11.608;2023-08-01T07:19:43;4.50;;;3.37;;
826;SDS011;395;48.132;11.608;2023-08-01T07:22:09;6.10;;;3.37;;
826;SDS011;395;48.132;11.608;2023-08-01T07:24:34;4.00;;;2.87;;
826;SDS011;395;48.132;11.608;2023-08-01T07:27:00;3.23;;;2.93;;
826;SDS011;395;48.132;11.608;2023-08-01T07:29:26;5.07;;;3.40;;
826;SDS011;395;48.132;11.608;2023-08-01T07:31:51;4.70;;;3.07;;
826;SDS011;395;48.132;11.608;2023-08-01T07:34:17;4.10;;;3.40;;
826;SDS011;395;48.132;11.608;2023-08-01T07:36:43;4.60;;;3.30;;
826;SDS011;395;48.132;11.608;2023-08-01T07:39:08;3.97;;;3.57;;
826;SDS011;395;48.132;11.608;2023-08-01T07:41:35;4.33;;;3.10;;
826;SDS011;395;48.132;11.608;2023-08-01T07:44:01;3.20;;;2.90;;
826;SDS011;395;48.132;11.608;2023-08-01T07:46:28;3.77;;;3.10;;
826;SDS011;395;48.132;11.608;2023-08-01T07:48:54;3.50;;;3.17;;
826;SDS011;395;48.132;11.608;2023-08-01T07:51:19;3.40;;;2.80;;
826;SDS011;395;48.132;11.608;2023-08-01T07:53:45;4.60;;;3.30;;
826;SDS011;395;48.132;11.608;2023-08-01T07:56:11;4.57;;;3.40;;
826;SDS011;395;48.132;11.608;2023-08-01T07:58:36;3.90;;;3.40;;
826;SDS011;395;48.132;11.608;2023-08-01T08:01:05;3.37;;;3.07;;
826;SDS011;395;48.132;11.608;2023-08-01T08:03:31;4.03;;;3.63;;
826;SDS011;395;48.132;11.608;2023-08-01T08:05:57;5.43;;;3.27;;
826;SDS011;395;48.132;11.608;2023-08-01T08:08:24;3.70;;;3.10;;
826;SDS011;395;48.132;11.608;2023-08-01T08:10:49;4.27;;;2.90;;
826;SDS011;395;48.132;11.608;2023-08-01T08:13:15;3.33;;;2.70;;
826;SDS011;395;48.132;11.608;2023-08-01T08:15:41;4.00;;;3.30;;
826;SDS011;395;48.132;11.608;2023-08-01T08:18:07;4.43;;;3.43;;
826;SDS011;395;48.132;11.608;2023-08-01T08:20:43;5.17;;;3.60;;
826;SDS011;395;48.132;11.608;2023-08-01T08:23:10;3.57;;;2.73;;
826;SDS011;395;48.132;11.608;2023-08-01T08:25:39;4.50;;;3.53;;
826;SDS011;395;48.132;11.608;2023-08-01T08:28:05;6.57;;;4.00;;
826;SDS011;395;48.132;11.608;2023-08-01T08:30:31;4.83;;;3.07;;
826;SDS011;395;48.132;11.608;2023-08-01T08:32:57;4.07;;;3.17;;
826;SDS011;395;48.132;11.608;2023-08-01T08:35:25;4.73;;;3.17;;
826;SDS011;395;48.132;11.608;2023-08-01T08:37:51;3.90;;;3.20;;
826;SDS011;395;48.132;11.608;2023-08-01T08:40:16;4.20;;;3.80;;
826;SDS011;395;48.132;11.608;2023-08-01T08:42:42;3.40;;;2.93;;
826;SDS011;395;48.132;11.608;2023-08-01T08:45:10;3.83;;;2.87;;
826;SDS011;395;48.132;11.608;2023-08-01T08:47:40;4.50;;;3.10;;
826;SDS011;395;48.132;11.608;2023-08-01T08:50:09;4.17;;;3.30;;
826;SDS011;395;48.132;11.608;2023-08-01T08:52:37;3.80;;;3.23;;
826;SDS011;395;48.132;11.608;2023-08-01T08:55:03;4.67;;;3.50;;
826;SDS011;395;48.132;11.608;2023-08-01T08:57:30;4.33;;;3.27;;
826;SDS011;395;48.132;11.608;2023-08-01T08:59:56;4.20;;;2.83;;
826;SDS011;395;48.132;11.608;2023-08-01T09:02:23;3.97;;;3.57;;
826;SDS011;395;48.132;11.608;2023-08-01T09:04:49;5.40;;;3.50;;
826;SDS011;395;48.132;11.608;2023-08-01T09:07:15;3.33;;;3.03;;
826;SDS011;395;48.132;11.608;2023-08-01T09:09:43;5.83;;;3.20;;
826;SDS011;395;48.132;11.608;2023-08-01T09:12:09;5.07;;;3.30;;
826;SDS011;395;48.132;11.608;2023-08-01T09:14:35;4.17;;;3.57;;
826;SDS011;395;48.132;11.608;2023-08-01T09:17:07;4.13;;;3.73;;
826;SDS011;395;48.132;11.608;2023-08-01T09:19:33;4.80;;;3.33;;
826;SDS011;395;48.132;11.608;2023-08-01T09:21:59;6.00;;;3.40;;
826;SDS011;395;48.132;11.608;2023-08-01T09:24:25;9.40;;;3.83;;
826;SDS011;395;48.132;11.608;2023-08-01T09:26:51;4.67;;;3.70;;
826;SDS011;395;48.132;11.608;2023-08-01T09:29:17;4.17;;;3.10;;
826;SDS011;395;48.132;11.608;2023-08-01T09:31:44;3.80;;;3.40;;
826;SDS011;395;48.132;11.608;2023-08-01T09:34:24;5.67;;;3.83;;
826;SDS011;395;48.132;11.608;2023-08-01T09:36:50;6.93;;;3.83;;
826;SDS011;395;48.132;11.608;2023-08-01T09:39:21;6.93;;;4.07;;
826;SDS011;395;48.132;11.608;2023-08-01T09:41:57;6.43;;;3.97;;
826;SDS011;395;48.132;11.608;2023-08-01T09:44:23;5.50;;;3.83;;
826;SDS011;395;48.132;11.608;2023-08-01T09:47:10;5.43;;;3.70;;
826;SDS011;395;48.132;11.608;2023-08-01T09:49:46;6.73;;;4.30;;
826;SDS011;395;48.132;11.608;2023-08-01T09:52:15;4.73;;;3.23;;
826;SDS011;395;48.132;11.608;2023-08-01T09:54:51;4.43;;;3.50;;
826;SDS011;395;48.132;11.608;2023-08-01T09:57:16;4.67;;;4.20;;
826;SDS011;395;48.132;11.608;2023-08-01T09:59:43;5.23;;;3.60;;
826;SDS011;395;48.132;11.608;2023-08-01T10:02:09;3.70;;;3.40;;
826;SDS011;395;48.132;11.608;2023-08-01T10:04:40;5.07;;;3.43;;
826;SDS011;395;48.132;11.608;2023-08-01T10:07:08;4.00;;;3.20;;
826;SDS011;395;48.132;11.608;2023-08-01T10:09:40;4.30;;;3.80;;
826;SDS011;395;48.132;11.608;2023-08-01T10:12:06;5.97;;;3.27;;
826;SDS011;395;48.132;11.608;2023-08-01T10:14:33;5.33;;;3.50;;
826;SDS011;395;48.132;11.608;2023-08-01T10:16:59;3.93;;;3.53;;
826;SDS011;395;48.132;11.608;2023-08-01T10:19:27;8.30;;;3.73;;
826;SDS011;395;48.132;11.608;2023-08-01T10:21:53;5.37;;;3.80;;
826;SDS011;395;48.132;11.608;2023-08-01T10:24:20;5.43;;;3.90;;
826;SDS011;395;48.132;11.608;2023-08-01T10:26:46;4.83;;;3.70;;
826;SDS011;395;48.132;11.608;2023-08-01T10:29:12;3.57;;;3.07;;
826;SDS011;395;48.132;11.608;2023-08-01T10:31:38;4.70;;;3.67;;
826;SDS011;395;48.132;11.608;2023-08-01T10:34:05;5.40;;;3.43;;
826;SDS011;395;48.132;11.608;2023-08-01T10:36:31;4.40;;;3.10;;
826;SDS011;395;48.132;11.608;2023-08-01T10:38:59;3.17;;;2.93;;
826;SDS011;395;48.132;11.608;2023-08-01T10:41:29;4.23;;;3.37;;
826;SDS011;395;48.132;11.608;2023-08-01T10:49:38;5.03;;;3.17;;
826;SDS011;395;48.132;11.608;2023-08-01T10:52:25;3.47;;;2.90;;
826;SDS011;395;48.132;11.608;2023-08-01T10:57:33;4.20;;;3.17;;
826;SDS011;395;48.132;11.608;2023-08-01T11:00:00;4.77;;;3.20;;
826;SDS011;395;48.132;11.608;2023-08-01T11:02:27;3.67;;;3.27;;
826;SDS011;395;48.132;11.608;2023-08-01T11:05:06;4.73;;;3.07;;
826;SDS011;395;48.132;11.608;2023-08-01T11:07:33;3.40;;;3.10;;
826;SDS011;395;48.132;11.608;2023-08-01T11:12:38;3.77;;;3.13;;
826;SDS011;395;48.132;11.608;2023-08-01T11:15:05;4.27;;;3.13;;
826;SDS011;395;48.132;11.608;2023-08-01T11:17:33;3.13;;;2.20;;
826;SDS011;395;48.132;11.608;2023-08-01T11:22:29;3.50;;;2.30;;
826;SDS011;395;48.132;11.608;2023-08-01T11:24:55;2.57;;;2.23;;
826;SDS011;395;48.132;11.608;2023-08-01T11:27:21;1.97;;;1.87;;
826;SDS011;395;48.132;11.608;2023-08-01T11:29:47;2.30;;;1.90;;
826;SDS011;395;48.132;11.608;2023-08-01T11:32:13;3.07;;;2.20;;
826;SDS011;395;48.132;11.608;2023-08-01T11:34:40;3.20;;;2.13;;
826;SDS011;395;48.132;11.608;2023-08-01T11:37:06;2.47;;;1.70;;
826;SDS011;395;48.132;11.608;2023-08-01T11:39:32;2.10;;;1.90;;
826;SDS011;395;48.132;11.608;2023-08-01T11:41:59;2.27;;;2.03;;
826;SDS011;395;48.132;11.608;2023-08-01T11:44:25;2.63;;;2.10;;
826;SDS011;395;48.132;11.608;2023-08-01T11:46:51;3.30;;;2.90;;
826;SDS011;395;48.132;11.608;2023-08-01T11:49:18;3.20;;;2.43;;
826;SDS011;395;48.132;11.608;2023-08-01T11:51:44;2.40;;;2.00;;
826;SDS011;395;48.132;11.608;2023-08-01T11:54:11;2.70;;;2.40;;
826;SDS011;395;48.132;11.608;2023-08-01T11:56:38;2.50;;;2.17;;
826;SDS011;395;48.132;11.608;2023-08-01T11:59:09;2.90;;;2.50;;
826;SDS011;395;48.132;11.608;2023-08-01T12:01:42;4.23;;;2.13;;
826;SDS011;395;48.132;11.608;2023-08-01T12:04:09;3.03;;;2.70;;
826;SDS011;395;48.132;11.608;2023-08-01T12:06:35;6.70;;;2.63;;
826;SDS011;395;48.132;11.608;2023-08-01T12:09:12;3.10;;;2.77;;
826;SDS011;395;48.132;11.608;2023-08-01T12:11:39;4.03;;;3.03;;
826;SDS011;395;48.132;11.608;2023-08-01T12:14:12;3.17;;;2.70;;
826;SDS011;395;48.132;11.608;2023-08-01T12:16:40;3.33;;;2.63;;
826;SDS011;395;48.132;11.608;2023-08-01T12:19:07;2.83;;;2.53;;
826;SDS011;395;48.132;11.608;2023-08-01T12:21:33;4.47;;;2.30;;
826;SDS011;395;48.132;11.608;2023-08-01T12:23:59;2.80;;;2.50;;
826;SDS011;395;48.132;11.608;2023-08-01T12:26:26;2.87;;;2.30;;
826;SDS011;395;48.132;11.608;2023-08-01T12:28:52;3.90;;;2.80;;
826;SDS011;395;48.132;11.608;2023-08-01T12:31:19;3.50;;;2.47;;
826;SDS011;395;48.132;11.608;2023-08-01T12:33:45;3.10;;;1.97;;
826;SDS011;395;48.132;11.608;2023-08-01T12:36:13;2.70;;;2.50;;
826;SDS011;395;48.132;11.608;2023-08-01T12:38:39;3.23;;;2.30;;
826;SDS011;395;48.132;11.608;2023-08-01T12:41:05;2.77;;;2.33;;
826;SDS011;395;48.132;11.608;2023-08-01T12:43:31;2.67;;;1.90;;
826;SDS011;395;48.132;11.608;2023-08-01T12:45:58;2.60;;;2.10;;
826;SDS011;395;48.132;11.608;2023-08-01T12:48:24;2.13;;;1.93;;
826;SDS011;395;48.132;11.608;2023-08-01T12:50:50;2.17;;;1.93;;
826;SDS011;395;48.132;11.608;2023-08-01T12:53:17;2.20;;;2.00;;
826;SDS011;395;48.132;11.608;2023-08-01T12:55:43;2.37;;;2.10;;
826;SDS011;395;48.132;11.608;2023-08-01T12:58:12;4.57;;;2.20;;
826;SDS011;395;48.132;11.608;2023-08-01T13:00:41;2.00;;;1.80;;
826;SDS011;395;48.132;11.608;2023-08-01T13:03:08;2.17;;;1.70;;
826;SDS011;395;48.132;11.608;2023-08-01T13:05:37;3.67;;;1.93;;
826;SDS011;395;48.132;11.608;2023-08-01T13:08:04;2.53;;;2.13;;
826;SDS011;395;48.132;11.608;2023-08-01T13:10:30;2.73;;;2.13;;
826;SDS011;395;48.132;11.608;2023-08-01T13:12:56;1.77;;;1.67;;
826;SDS011;395;48.132;11.608;2023-08-01T13:15:23;2.77;;;2.27;;
826;SDS011;395;48.132;11.608;2023-08-01T13:17:49;2.07;;;1.70;;
826;SDS011;395;48.132;11.608;2023-08-01T13:20:15;2.10;;;1.90;;
826;SDS011;395;48.132;11.608;2023-08-01T13:22:41;2.30;;;2.10;;
826;SDS011;395;48.132;11.608;2023-08-01T13:25:07;2.33;;;2.13;;
826;SDS011;395;48.132;11.608;2023-08-01T13:27:34;3.07;;;1.87;;
826;SDS011;395;48.132;11.608;2023-08-01T13:30:01;2.67;;;1.93;;
826;SDS011;395;48.132;11.608;2023-08-01T13:32:27;2.67;;;2.00;;
826;SDS011;395;48.132;11.608;2023-08-01T13:34:53;2.43;;;1.93;;
826;SDS011;395;48.132;11.608;2023-08-01T13:37:19;3.30;;;2.57;;
826;SDS011;395;48.132;11.608;2023-08-01T13:39:45;2.00;;;1.80;;
826;SDS011;395;48.132;11.608;2023-08-01T13:42:12;2.37;;;2.17;;
826;SDS011;395;48.132;11.608;2023-08-01T13:44:38;3.20;;;2.13;;
826;SDS011;395;48.132;11.608;2023-08-01T13:47:04;5.47;;;2.47;;
826;SDS011;395;48.132;11.608;2023-08-01T13:49:30;2.73;;;2.20;;
826;SDS011;395;48.132;11.608;2023-08-01T13:51:56;4.07;;;2.67;;
826;SDS011;395;48.132;11.608;2023-08-01T13:54:22;3.07;;;2.77;;
826;SDS011;395;48.132;11.608;2023-08-01T13:56:48;3.50;;;2.40;;
826;SDS011;395;48.132;11.608;2023-08-01T13:59:14;2.40;;;2.20;;
826;SDS011;395;48.132;11.608;2023-08-01T14:01:40;3.30;;;2.20;;
826;SDS011;395;48.132;11.608;2023-08-01T14:04:06;3.33;;;2.60;;
826;SDS011;395;48.132;11.608;2023-08-01T14:06:32;2.90;;;2.03;;
826;SDS011;395;48.132;11.608;2023-08-01T14:08:58;3.03;;;2.33;;
826;SDS011;395;48.132;11.608;2023-08-01T14:11:24;3.07;;;2.07;;
826;SDS011;395;48.132;11.608;2023-08-01T14:13:50;3.20;;;2.67;;
826;SDS011;395;48.132;11.608;2023-08-01T14:16:16;4.17;;;2.40;;
826;SDS011;395;48.132;11.608;2023-08-01T14:18:43;2.80;;;2.60;;
826;SDS011;395;48.132;11.608;2023-08-01T14:21:09;3.07;;;1.90;;
826;SDS011;395;48.132;11.608;2023-08-01T14:23:35;2.37;;;2.17;;
826;SDS011;395;48.132;11.608;2023-08-01T14:26:05;3.23;;;2.50;;
826;SDS011;395;48.132;11.608;2023-08-01T14:28:31;2.60;;;2.40;;
826;SDS011;395;48.132;11.608;2023-08-01T14:30:59;3.23;;;2.60;;
826;SDS011;395;48.132;11.608;2023-08-01T14:33:26;2.77;;;2.50;;
826;SDS011;395;48.132;11.608;2023-08-01T14:35:53;2.97;;;2.70;;
826;SDS011;395;48.132;11.608;2023-08-01T14:38:19;2.60;;;2.30;;
826;SDS011;395;48.132;11.608;2023-08-01T14:40:45;2.73;;;1.97;;
826;SDS011;395;48.132;11.608;2023-08-01T14:43:11;1.80;;;1.50;;
826;SDS011;395;48.132;11.608;2023-08-01T14:45:37;1.73;;;1.47;;
826;SDS011;395;48.132;11.608;2023-08-01T14:48:04;2.03;;;1.73;;
826;SDS011;395;48.132;11.608;2023-08-01T14:50:30;1.60;;;1.30;;
826;SDS011;395;48.132;11.608;2023-08-01T14:52:56;2.60;;;1.27;;
826;SDS011;395;48.132;11.608;2023-08-01T14:55:22;2.20;;;1.53;;
826;SDS011;395;48.132;11.608;2023-08-01T14:57:48;2.33;;;1.60;;
826;SDS011;395;48.132;11.608;2023-08-01T15:00:15;1.93;;;1.50;;
826;SDS011;395;48.132;11.608;2023-08-01T15:02:41;1.47;;;1.33;;
826;SDS011;395;48.132;11.608;2023-08-01T15:05:07;1.67;;;1.57;;
826;SDS011;395;48.132;11.608;2023-08-01T15:07:33;2.23;;;1.70;;
826;SDS011;395;48.132;11.608;2023-08-01T15:09:59;2.00;;;1.80;;
826;SDS011;395;48.132;11.608;2023-08-01T15:12:25;2.00;;;1.77;;
826;SDS011;395;48.132;11.608;2023-08-01T15:14:52;1.87;;;1.60;;
826;SDS011;395;48.132;11.608;2023-08-01T15:17:18;1.80;;;1.43;;
826;SDS011;395;48.132;11.608;2023-08-01T15:19:44;2.50;;;1.40;;
826;SDS011;395;48.132;11.608;2023-08-01T15:22:12;1.60;;;1.50;;
826;SDS011;395;48.132;11.608;2023-08-01T15:24:39;1.20;;;1.03;;
826;SDS011;395;48.132;11.608;2023-08-01T15:27:05;1.37;;;1.00;;
826;SDS011;395;48.132;11.608;2023-08-01T15:29:31;1.90;;;0.97;;
826;SDS011;395;48.132;11.608;2023-08-01T15:31:57;2.10;;;1.27;;
826;SDS011;395;48.132;11.608;2023-08-01T15:34:23;1.97;;;1.43;;
826;SDS011;395;48.132;11.608;2023-08-01T15:36:49;2.30;;;1.03;;
826;SDS011;395;48.132;11.608;2023-08-01T15:39:15;3.83;;;1.13;;
826;SDS011;395;48.132;11.608;2023-08-01T15:41:41;1.03;;;0.93;;